createdAt,value
2017-11-13T00:02:25.542Z,5.60
2017-11-13T00:04:56.741Z,5.60
2017-11-13T00:07:26.810Z,5.60
2017-11-13T00:09:57.582Z,5.60
2017-11-13T00:12:27.095Z,5.50
2017-11-13T00:14:59.126Z,5.60
2017-11-13T00:17:28.504Z,5.50
2017-11-13T00:20:01.310Z,5.60
2017-11-13T00:22:30.621Z,5.60
2017-11-13T00:25:00.052Z,5.70
2017-11-13T00:27:29.567Z,5.60
2017-11-13T00:30:08.128Z,5.60
2017-11-13T00:32:37.924Z,5.60
2017-11-13T00:35:07.342Z,5.70
2017-11-13T00:37:36.513Z,5.60
2017-11-13T00:40:05.794Z,5.70
2017-11-13T00:42:35.040Z,5.70
2017-11-13T00:45:04.722Z,5.60
2017-11-13T00:47:35.106Z,5.60
2017-11-13T00:50:04.719Z,5.60
2017-11-13T00:52:34.436Z,5.60
2017-11-13T00:55:05.703Z,5.60
2017-11-13T00:57:35.961Z,5.60
2017-11-13T01:00:06.509Z,5.60
2017-11-13T01:02:36.498Z,5.60
2017-11-13T01:05:07.018Z,5.60
2017-11-13T01:07:38.751Z,5.50
2017-11-13T01:10:09.636Z,5.60
2017-11-13T01:12:39.193Z,5.50
2017-11-13T01:15:09.024Z,5.50
2017-11-13T01:17:39.742Z,5.50
2017-11-13T01:20:09.291Z,5.40
2017-11-13T01:22:39.337Z,5.40
2017-11-13T01:25:09.528Z,5.40
2017-11-13T01:27:38.858Z,5.40
2017-11-13T01:30:09.214Z,5.30
2017-11-13T01:32:38.855Z,5.30
2017-11-13T01:35:08.514Z,5.20
2017-11-13T01:37:38.286Z,5.20
2017-11-13T01:40:07.973Z,5.10
2017-11-13T01:42:37.766Z,5.10
2017-11-13T01:45:07.894Z,5.10
2017-11-13T01:47:37.693Z,5.10
2017-11-13T01:50:07.067Z,5.00
2017-11-13T01:52:37.119Z,5.00
2017-11-13T01:55:06.803Z,4.90
2017-11-13T01:57:43.837Z,5.00
2017-11-13T02:00:15.024Z,5.00
2017-11-13T02:02:44.814Z,5.00
2017-11-13T02:05:14.404Z,5.00
2017-11-13T02:07:44.398Z,5.00
2017-11-13T02:10:14.121Z,5.00
2017-11-13T02:12:43.501Z,5.10
2017-11-13T02:15:12.736Z,5.10
2017-11-13T02:17:42.272Z,5.10
2017-11-13T02:20:11.550Z,5.10
2017-11-13T02:22:40.979Z,5.10
2017-11-13T02:25:10.801Z,5.20
2017-11-13T02:27:40.935Z,5.20
2017-11-13T02:30:10.216Z,5.20
2017-11-13T02:32:40.414Z,5.20
2017-11-13T02:35:09.693Z,5.20
2017-11-13T02:37:39.062Z,5.20
2017-11-13T02:40:08.548Z,5.20
2017-11-13T02:42:38.395Z,5.30
2017-11-13T02:45:07.777Z,5.20
2017-11-13T02:47:37.070Z,5.10
2017-11-13T02:50:06.883Z,5.10
2017-11-13T02:52:36.369Z,5.20
2017-11-13T02:55:06.033Z,5.20
2017-11-13T02:57:35.690Z,5.20
2017-11-13T03:00:05.233Z,5.10
2017-11-13T03:02:34.493Z,5.10
2017-11-13T03:05:04.335Z,5.10
2017-11-13T03:07:33.617Z,5.10
2017-11-13T03:10:02.866Z,5.10
2017-11-13T03:12:32.236Z,5.10
2017-11-13T03:15:01.706Z,5.10
2017-11-13T03:17:31.595Z,5.20
2017-11-13T03:20:01.328Z,5.20
2017-11-13T03:22:30.534Z,5.20
2017-11-13T03:25:00.492Z,5.20
2017-11-13T03:27:29.990Z,5.20
2017-11-13T03:29:59.561Z,5.30
2017-11-13T03:32:28.748Z,5.30
2017-11-13T03:34:58.085Z,5.30
2017-11-13T03:37:27.277Z,5.30
2017-11-13T03:39:56.622Z,5.40
2017-11-13T03:42:26.662Z,5.30
2017-11-13T03:44:56.745Z,5.40
2017-11-13T03:47:26.212Z,5.40
2017-11-13T03:49:55.992Z,5.30
2017-11-13T03:52:25.349Z,5.30
2017-11-13T03:54:54.513Z,5.20
2017-11-13T03:57:23.833Z,5.20
2017-11-13T03:59:52.993Z,5.10
2017-11-13T04:02:22.220Z,5.10
2017-11-13T04:04:52.290Z,5.10
2017-11-13T04:07:21.876Z,5.10
2017-11-13T04:09:51.030Z,5.20
2017-11-13T04:12:21.005Z,5.30
2017-11-13T04:14:54.872Z,5.30
2017-11-13T04:17:30.638Z,5.30
2017-11-13T04:20:00.186Z,5.30
2017-11-13T04:22:29.346Z,5.30
2017-11-13T04:24:58.615Z,5.40
2017-11-13T04:27:29.278Z,5.40
2017-11-13T04:29:58.943Z,5.40
2017-11-13T04:32:29.468Z,5.40
2017-11-13T04:34:58.672Z,5.40
2017-11-13T04:37:29.276Z,5.30
2017-11-13T04:40:00.235Z,5.30
2017-11-13T04:42:29.471Z,5.30
2017-11-13T04:44:58.700Z,5.40
2017-11-13T04:47:28.206Z,5.30
2017-11-13T04:49:57.451Z,5.30
2017-11-13T04:52:27.026Z,5.40
2017-11-13T04:54:56.287Z,5.40
2017-11-13T04:57:25.815Z,5.40
2017-11-13T04:59:55.084Z,5.40
2017-11-13T05:02:25.837Z,5.40
2017-11-13T05:04:55.369Z,5.50
2017-11-13T05:07:24.879Z,5.50
2017-11-13T05:09:54.164Z,5.40
2017-11-13T05:12:23.592Z,5.40
2017-11-13T05:14:52.811Z,5.40
2017-11-13T05:17:22.781Z,5.30
2017-11-13T05:19:51.979Z,5.30
2017-11-13T05:22:21.763Z,5.30
2017-11-13T05:24:51.065Z,5.30
2017-11-13T05:27:20.283Z,5.30
2017-11-13T05:29:49.462Z,5.40
2017-11-13T05:32:19.440Z,5.50
2017-11-13T05:34:48.927Z,5.50
2017-11-13T05:37:18.217Z,5.50
2017-11-13T05:39:47.562Z,5.50
2017-11-13T05:42:16.772Z,5.50
2017-11-13T05:44:45.976Z,5.50
2017-11-13T05:47:15.210Z,5.50
2017-11-13T05:49:44.410Z,5.50
2017-11-13T05:52:13.801Z,5.50
2017-11-13T05:54:43.289Z,5.60
2017-11-13T05:57:13.366Z,5.60
2017-11-13T05:59:43.747Z,5.60
2017-11-13T06:02:12.975Z,5.50
2017-11-13T06:04:42.942Z,5.60
2017-11-13T06:07:12.176Z,5.60
2017-11-13T06:09:41.693Z,5.50
2017-11-13T06:12:12.602Z,5.50
2017-11-13T06:14:42.875Z,5.40
2017-11-13T06:17:12.313Z,5.50
2017-11-13T06:19:41.852Z,5.50
2017-11-13T06:22:11.329Z,5.50
2017-11-13T06:24:40.908Z,5.50
2017-11-13T06:27:10.436Z,5.50
2017-11-13T06:29:39.936Z,5.40
2017-11-13T06:32:09.486Z,5.40
2017-11-13T06:34:38.886Z,5.40
2017-11-13T06:37:08.507Z,5.50
2017-11-13T06:39:39.186Z,5.60
2017-11-13T06:42:08.498Z,5.60
2017-11-13T06:44:38.228Z,5.70
2017-11-13T06:47:08.013Z,5.70
2017-11-13T06:49:37.428Z,5.80
2017-11-13T06:52:06.714Z,5.80
2017-11-13T06:54:36.045Z,5.90
2017-11-13T06:57:05.370Z,5.90
2017-11-13T06:59:35.025Z,5.90
2017-11-13T07:02:04.587Z,5.90
2017-11-13T07:04:34.204Z,5.90
2017-11-13T07:07:03.630Z,5.90
2017-11-13T07:09:33.043Z,6.00
2017-11-13T07:12:02.408Z,6.10
2017-11-13T07:14:32.626Z,6.10
2017-11-13T07:17:01.943Z,6.10
2017-11-13T07:19:31.310Z,6.20
2017-11-13T07:22:00.704Z,6.20
2017-11-13T07:24:30.080Z,6.10
2017-11-13T07:27:00.091Z,6.20
2017-11-13T07:29:29.809Z,6.20
2017-11-13T07:31:58.971Z,6.20
2017-11-13T07:34:28.430Z,6.20
2017-11-13T07:36:57.852Z,6.20
2017-11-13T07:39:27.239Z,6.30
2017-11-13T07:41:56.857Z,6.30
2017-11-13T07:44:26.309Z,6.40
2017-11-13T07:46:56.602Z,6.50
2017-11-13T07:49:26.707Z,6.60
2017-11-13T07:51:56.169Z,6.50
2017-11-13T07:54:25.703Z,6.60
2017-11-13T07:56:55.199Z,6.60
2017-11-13T07:59:24.660Z,6.60
2017-11-13T08:01:53.989Z,6.60
2017-11-13T08:04:30.299Z,6.60
2017-11-13T08:07:06.864Z,6.50
2017-11-13T08:09:36.422Z,6.60
2017-11-13T08:12:05.263Z,6.60
2017-11-13T08:14:35.634Z,6.80
2017-11-13T08:17:05.454Z,6.80
2017-11-13T08:19:34.927Z,6.90
2017-11-13T08:22:04.447Z,6.80
2017-11-13T08:24:33.897Z,6.60
2017-11-13T08:27:03.977Z,6.60
2017-11-13T08:29:33.348Z,6.60
2017-11-13T08:32:03.064Z,6.70
2017-11-13T08:34:32.389Z,6.70
2017-11-13T08:37:01.816Z,6.60
2017-11-13T08:39:31.059Z,6.60
2017-11-13T08:42:00.311Z,6.60
2017-11-13T08:44:29.722Z,6.80
2017-11-13T08:46:59.084Z,6.90
2017-11-13T08:49:28.328Z,6.80
2017-11-13T08:51:57.601Z,6.90
2017-11-13T08:54:27.033Z,6.90
2017-11-13T08:56:56.340Z,7.00
2017-11-13T08:59:25.888Z,7.00
2017-11-13T09:01:55.976Z,7.20
2017-11-13T09:04:28.644Z,7.30
2017-11-13T09:06:57.892Z,7.30
2017-11-13T09:09:27.131Z,7.30
2017-11-13T09:11:56.606Z,7.40
2017-11-13T09:14:26.065Z,7.30
2017-11-13T09:16:55.980Z,7.30
2017-11-13T09:19:25.290Z,7.40
2017-11-13T09:21:55.735Z,7.40
2017-11-13T09:24:25.205Z,7.40
2017-11-13T09:26:55.356Z,7.20
2017-11-13T09:29:24.714Z,7.20
2017-11-13T09:31:53.941Z,7.30
2017-11-13T09:34:24.089Z,7.30
2017-11-13T09:36:54.014Z,7.30
2017-11-13T09:39:23.376Z,7.40
2017-11-13T09:41:52.749Z,7.50
2017-11-13T09:44:21.984Z,7.80
2017-11-13T09:46:52.174Z,8.10
2017-11-13T09:49:21.710Z,8.10
2017-11-13T09:51:51.920Z,8.30
2017-11-13T09:54:21.259Z,8.30
2017-11-13T09:56:50.671Z,8.30
2017-11-13T09:59:19.956Z,8.30
2017-11-13T10:01:49.350Z,8.30
2017-11-13T10:04:18.657Z,8.40
2017-11-13T10:06:50.407Z,8.40
2017-11-13T10:10:22.833Z,8.80
2017-11-13T10:12:52.228Z,8.70
2017-11-13T10:15:21.532Z,8.90
2017-11-13T10:17:50.899Z,8.90
2017-11-13T10:20:20.265Z,8.90
2017-11-13T10:22:49.979Z,8.90
2017-11-13T10:25:22.836Z,8.90
2017-11-13T10:27:52.588Z,8.80
2017-11-13T10:30:27.104Z,9.00
2017-11-13T10:32:57.197Z,9.00
2017-11-13T10:35:26.961Z,9.00
2017-11-13T10:37:56.282Z,9.10
2017-11-13T10:40:25.925Z,9.00
2017-11-13T10:42:55.412Z,9.00
2017-11-13T10:45:25.289Z,9.20
2017-11-13T10:47:56.797Z,9.20
2017-11-13T10:50:26.599Z,9.20
2017-11-13T10:52:55.946Z,9.30
2017-11-13T10:55:25.448Z,9.50
2017-11-13T10:57:55.673Z,9.70
2017-11-13T11:00:25.506Z,9.70
2017-11-13T11:02:55.097Z,9.80
2017-11-13T11:05:25.738Z,10.00
2017-11-13T11:07:55.224Z,9.90
2017-11-13T11:10:24.983Z,9.70
2017-11-13T11:12:54.563Z,9.70
2017-11-13T11:15:24.147Z,9.80
2017-11-13T11:17:54.387Z,9.60
2017-11-13T11:20:24.041Z,9.60
2017-11-13T11:22:53.619Z,9.80
2017-11-13T11:25:29.046Z,9.70
2017-11-13T11:28:05.945Z,10.10
2017-11-13T11:30:38.542Z,10.00
2017-11-13T11:33:08.034Z,10.20
2017-11-13T11:35:37.675Z,10.60
2017-11-13T11:38:07.117Z,10.90
2017-11-13T11:40:36.977Z,11.00
2017-11-13T11:43:06.531Z,11.10
2017-11-13T11:45:35.967Z,10.90
2017-11-13T11:48:05.410Z,10.90
2017-11-13T11:50:36.327Z,10.80
2017-11-13T11:53:05.810Z,11.00
2017-11-13T11:55:37.205Z,10.90
2017-11-13T11:58:06.900Z,10.80
2017-11-13T12:00:37.469Z,10.70
2017-11-13T12:03:06.962Z,10.50
2017-11-13T12:05:37.182Z,10.50
2017-11-13T12:08:10.478Z,10.50
2017-11-13T12:10:43.361Z,10.50
2017-11-13T12:13:14.972Z,10.70
2017-11-13T12:15:45.322Z,10.70
2017-11-13T12:18:18.167Z,10.90
2017-11-13T12:20:48.965Z,10.90
2017-11-13T12:23:20.809Z,10.80
2017-11-13T12:25:52.801Z,10.60
2017-11-13T12:28:27.353Z,10.60
2017-11-13T12:30:58.030Z,10.60
2017-11-13T12:33:29.113Z,10.60
2017-11-13T12:36:00.588Z,10.50
2017-11-13T12:38:31.051Z,10.60
2017-11-13T12:41:01.585Z,10.50
2017-11-13T12:43:31.951Z,10.30
2017-11-13T12:46:02.937Z,10.30
2017-11-13T12:48:32.898Z,10.20
2017-11-13T12:51:03.319Z,10.40
2017-11-13T12:53:33.534Z,10.30
2017-11-13T12:56:03.960Z,10.20
2017-11-13T12:58:34.266Z,10.40
2017-11-13T13:01:04.750Z,12.00
2017-11-13T13:03:34.233Z,12.00
2017-11-13T13:06:03.972Z,12.90
2017-11-13T13:08:34.589Z,12.20
2017-11-13T13:11:04.904Z,11.80
2017-11-13T13:13:34.456Z,11.60
2017-11-13T13:16:04.109Z,11.50
2017-11-13T13:18:34.581Z,11.40
2017-11-13T13:21:06.181Z,11.00
2017-11-13T13:23:37.056Z,11.90
2017-11-13T13:26:09.670Z,11.90
2017-11-13T13:28:39.957Z,13.30
2017-11-13T13:31:10.276Z,13.20
2017-11-13T13:33:44.838Z,13.00
2017-11-13T13:36:16.001Z,12.70
2017-11-13T13:38:50.570Z,12.30
2017-11-13T13:41:23.228Z,12.30
2017-11-13T13:43:53.951Z,13.30
2017-11-13T13:50:10.828Z,14.50
2017-11-13T13:52:41.457Z,15.10
2017-11-13T13:55:11.887Z,15.20
2017-11-13T13:57:43.220Z,15.10
2017-11-13T14:04:45.543Z,15.70
2017-11-13T14:07:28.440Z,15.00
2017-11-13T14:10:00.805Z,15.00
2017-11-13T14:12:38.657Z,14.30
2017-11-13T14:15:18.814Z,12.00
2017-11-13T14:17:59.272Z,12.00
2017-11-13T14:20:30.886Z,11.20
2017-11-13T14:23:02.504Z,10.90
2017-11-13T14:25:38.111Z,10.70
2017-11-13T14:28:08.663Z,10.60
2017-11-13T14:30:38.893Z,10.40
2017-11-13T14:33:09.193Z,10.20
2017-11-13T14:35:38.571Z,10.10
2017-11-13T14:38:08.607Z,10.10
2017-11-13T14:40:39.638Z,10.00
2017-11-13T14:43:09.887Z,9.90
2017-11-13T14:45:39.214Z,9.90
2017-11-13T14:48:09.365Z,9.90
2017-11-13T14:50:39.225Z,9.90
2017-11-13T14:53:08.731Z,9.90
2017-11-13T14:55:38.112Z,10.00
2017-11-13T14:58:07.879Z,9.80
2017-11-13T15:00:37.064Z,9.70
2017-11-13T15:03:07.131Z,9.60
2017-11-13T15:05:36.951Z,9.60
2017-11-13T15:08:06.337Z,9.60
2017-11-13T15:10:36.667Z,9.50
2017-11-13T15:13:06.038Z,9.50
2017-11-13T15:15:35.463Z,9.50
2017-11-13T15:18:08.939Z,9.60
2017-11-13T15:20:38.110Z,9.50
2017-11-13T15:23:08.385Z,9.40
2017-11-13T15:25:37.950Z,9.30
2017-11-13T15:28:08.148Z,9.30
2017-11-13T15:30:37.712Z,9.30
2017-11-13T15:33:07.004Z,9.30
2017-11-13T15:35:36.273Z,9.20
2017-11-13T15:38:06.731Z,9.10
2017-11-13T15:40:35.844Z,9.10
2017-11-13T15:43:05.286Z,9.00
2017-11-13T15:45:35.584Z,9.00
2017-11-13T15:48:11.951Z,9.00
2017-11-13T15:50:49.099Z,8.90
2017-11-13T15:53:18.773Z,8.90
2017-11-13T15:55:49.024Z,8.80
2017-11-13T15:58:19.600Z,8.80
2017-11-13T16:00:48.845Z,8.90
2017-11-13T16:03:18.174Z,8.80
2017-11-13T16:05:48.089Z,8.80
2017-11-13T16:08:24.652Z,8.80
2017-11-13T16:11:01.111Z,8.80
2017-11-13T16:13:31.223Z,8.70
2017-11-13T16:16:05.976Z,8.70
2017-11-13T16:18:36.299Z,8.80
2017-11-13T16:21:07.139Z,8.80
2017-11-13T16:23:44.768Z,8.70
2017-11-13T16:26:20.992Z,8.70
2017-11-13T16:28:51.266Z,8.70
2017-11-13T16:31:21.295Z,8.60
2017-11-13T16:33:51.353Z,8.60
2017-11-13T16:36:21.420Z,8.60
2017-11-13T16:38:52.546Z,8.50
2017-11-13T16:41:23.206Z,8.50
2017-11-13T16:43:53.685Z,8.50
2017-11-13T16:46:24.595Z,8.50
2017-11-13T16:48:54.497Z,8.40
2017-11-13T16:51:24.374Z,8.40
2017-11-13T16:53:56.297Z,8.30
2017-11-13T16:56:26.612Z,8.30
2017-11-13T16:58:56.791Z,8.30
2017-11-13T17:01:26.525Z,8.30
2017-11-13T17:03:57.218Z,8.30
2017-11-13T17:06:33.305Z,8.30
2017-11-13T17:09:03.623Z,8.20
2017-11-13T17:11:34.622Z,8.20
2017-11-13T17:14:04.851Z,8.20
2017-11-13T17:16:36.192Z,8.20
2017-11-13T17:19:09.533Z,8.20
2017-11-13T17:21:39.326Z,8.30
2017-11-13T17:24:09.309Z,8.20
2017-11-13T17:26:39.817Z,8.20
2017-11-13T17:29:09.606Z,8.20
2017-11-13T17:31:39.312Z,8.20
2017-11-13T17:34:10.305Z,8.30
2017-11-13T17:41:19.407Z,8.30
2017-11-13T17:43:48.935Z,8.30
2017-11-13T17:46:19.052Z,8.40
2017-11-13T17:48:49.347Z,8.40
2017-11-13T17:51:18.975Z,8.50
2017-11-13T17:53:49.808Z,8.40
2017-11-13T17:56:27.147Z,8.40
2017-11-13T17:59:03.963Z,8.40
2017-11-13T18:01:34.182Z,8.40
2017-11-13T18:04:03.826Z,8.40
2017-11-13T18:06:33.974Z,8.30
2017-11-13T18:09:04.682Z,8.30
2017-11-13T18:11:41.047Z,8.20
2017-11-13T18:14:12.318Z,8.30
2017-11-13T18:16:42.112Z,8.20
2017-11-13T18:19:12.072Z,8.20
2017-11-13T18:21:42.048Z,8.00
2017-11-13T18:24:12.118Z,8.00
2017-11-13T18:26:42.991Z,8.00
2017-11-13T18:29:14.056Z,8.00
2017-11-13T18:31:44.839Z,7.90
2017-11-13T18:34:14.461Z,7.90
2017-11-13T18:36:43.818Z,7.80
2017-11-13T18:39:15.967Z,7.90
2017-11-13T18:41:45.981Z,7.90
2017-11-13T18:44:15.242Z,7.90
2017-11-13T18:46:46.070Z,7.90
2017-11-13T18:49:16.141Z,7.90
2017-11-13T18:51:46.318Z,7.90
2017-11-13T18:54:16.326Z,8.00
2017-11-13T18:56:45.769Z,8.00
2017-11-13T18:59:18.000Z,7.90
2017-11-13T19:01:48.159Z,7.90
2017-11-13T19:04:17.632Z,7.80
2017-11-13T19:06:48.197Z,7.70
2017-11-13T19:09:18.336Z,7.70
2017-11-13T19:11:52.497Z,7.80
2017-11-13T19:14:23.110Z,8.00
2017-11-13T19:16:54.037Z,7.90
2017-11-13T19:19:24.183Z,7.90
2017-11-13T19:21:54.224Z,8.00
2017-11-13T19:24:32.955Z,8.00
2017-11-13T19:27:09.044Z,8.10
2017-11-13T19:29:41.914Z,8.20
2017-11-13T19:32:11.391Z,8.20
2017-11-13T19:34:42.212Z,8.20
2017-11-13T19:37:14.283Z,8.20
2017-11-13T19:39:45.068Z,8.10
2017-11-13T19:42:20.225Z,8.10
2017-11-13T19:44:50.440Z,8.10
2017-11-13T19:47:21.472Z,8.00
2017-11-13T19:49:52.113Z,8.00
2017-11-13T19:52:29.012Z,8.00
2017-11-13T19:55:07.725Z,7.90
2017-11-13T19:57:42.256Z,8.00
2017-11-13T20:00:13.810Z,8.00
2017-11-13T20:02:43.951Z,8.00
2017-11-13T20:05:14.388Z,7.80
2017-11-13T20:07:44.493Z,7.80
2017-11-13T20:10:15.520Z,7.80
2017-11-13T20:12:46.414Z,7.90
2017-11-13T20:15:15.902Z,7.90
2017-11-13T20:17:45.254Z,7.90
2017-11-13T20:20:15.627Z,7.80
2017-11-13T20:22:45.801Z,7.70
2017-11-13T20:25:16.601Z,7.60
2017-11-13T20:27:46.364Z,7.60
2017-11-13T20:30:16.294Z,7.80
2017-11-13T20:32:47.620Z,7.80
2017-11-13T20:35:19.524Z,7.70
2017-11-13T20:37:49.650Z,7.70
2017-11-13T20:40:19.701Z,7.70
2017-11-13T20:42:50.357Z,7.80
2017-11-13T20:45:20.464Z,7.80
2017-11-13T20:47:56.933Z,7.90
2017-11-13T20:50:28.017Z,7.90
2017-11-13T20:52:58.269Z,7.90
2017-11-13T20:55:28.136Z,7.90
2017-11-13T20:57:58.368Z,7.90
2017-11-13T21:00:28.370Z,7.90
2017-11-13T21:02:59.192Z,7.80
2017-11-13T21:05:28.940Z,7.80
2017-11-13T21:07:58.192Z,7.70
2017-11-13T21:10:34.733Z,7.70
2017-11-13T21:13:09.400Z,7.70
2017-11-13T21:15:39.049Z,7.70
2017-11-13T21:18:08.683Z,7.50
2017-11-13T21:20:37.941Z,7.20
2017-11-13T21:23:09.328Z,7.20
2017-11-13T21:25:38.968Z,7.20
2017-11-13T21:28:08.978Z,7.20
2017-11-13T21:30:44.766Z,7.10
2017-11-13T21:33:16.713Z,7.00
2017-11-13T21:35:45.947Z,7.00
2017-11-13T21:38:15.520Z,7.00
2017-11-13T21:40:44.896Z,6.80
2017-11-13T21:43:14.785Z,7.00
2017-11-13T21:45:46.238Z,6.90
2017-11-13T21:48:15.823Z,6.90
2017-11-13T21:50:45.954Z,6.80
2017-11-13T21:53:17.362Z,6.80
2017-11-13T21:55:46.973Z,6.80
2017-11-13T21:58:17.091Z,6.80
2017-11-13T22:00:46.787Z,6.80
2017-11-13T22:03:16.928Z,6.60
2017-11-13T22:05:48.019Z,6.60
2017-11-13T22:08:18.659Z,6.50
2017-11-13T22:10:48.357Z,6.50
2017-11-13T22:13:19.011Z,6.40
2017-11-13T22:15:49.216Z,6.30
2017-11-13T22:18:20.294Z,6.40
2017-11-13T22:20:50.913Z,6.20
2017-11-13T22:23:20.946Z,6.20
2017-11-13T22:25:50.246Z,6.30
2017-11-13T22:28:20.218Z,6.30
2017-11-13T22:30:55.995Z,6.30
2017-11-13T22:33:31.593Z,6.40
2017-11-13T22:36:01.594Z,6.50
2017-11-13T22:38:31.598Z,6.40
2017-11-13T22:41:01.629Z,6.50
2017-11-13T22:43:30.838Z,6.50
2017-11-13T22:45:59.893Z,6.40
2017-11-13T22:48:29.866Z,6.30
2017-11-13T22:50:59.153Z,6.20
2017-11-13T22:53:28.960Z,6.00
2017-11-13T22:55:58.182Z,6.00
2017-11-13T22:58:27.462Z,6.00
2017-11-13T23:00:57.171Z,6.10
2017-11-13T23:03:26.610Z,6.00
2017-11-13T23:05:58.324Z,6.00
2017-11-13T23:08:28.684Z,5.80
2017-11-13T23:10:58.491Z,5.80
2017-11-13T23:13:28.314Z,5.70
2017-11-13T23:15:57.536Z,5.70
2017-11-13T23:18:26.503Z,5.70
2017-11-13T23:20:55.532Z,5.70
2017-11-13T23:23:25.579Z,5.70
2017-11-13T23:25:55.557Z,5.70
2017-11-13T23:28:25.640Z,5.70
2017-11-13T23:30:54.761Z,5.70
2017-11-13T23:33:25.117Z,5.60
2017-11-13T23:35:55.221Z,5.60
2017-11-13T23:38:24.970Z,5.50
2017-11-13T23:40:55.429Z,5.50
2017-11-13T23:43:26.074Z,5.40
2017-11-13T23:45:55.366Z,5.40
2017-11-13T23:48:24.494Z,5.40
2017-11-13T23:50:53.597Z,5.40
2017-11-13T23:53:23.464Z,5.30
2017-11-13T23:55:52.997Z,5.30
2017-11-13T23:58:22.906Z,5.30
